Time;durP1;ratioP1;P1;durP2;ratioP2;P2;SDS_P1;SDS_P2;PMS_P1;PMS_P2;Temp;Humidity;BMP_temperature;BMP_pressure;BME280_temperature;BME280_humidity;BME280_pressure;Samples;Min_cycle;Max_cycle;Signal;HPM_P1;HPM_P2
2021/11/13 00:00:38;;;;;;;296.10;63.60;;;-0.90;99.90;;;;;;4108367;28;20347;-64
2021/11/13 00:02:39;;;;;;;396.60;73.00;;;-0.90;99.90;;;;;;4109974;28;20269;-66
2021/11/13 00:04:40;;;;;;;299.27;67.17;;;-0.90;99.90;;;;;;4107942;28;20268;-63
2021/11/13 00:06:41;;;;;;;259.33;58.93;;;-1.00;99.90;;;;;;4110064;28;20334;-63
2021/11/13 00:08:42;;;;;;;210.87;54.77;;;-1.00;99.90;;;;;;4109482;28;20395;-69
2021/11/13 00:10:43;;;;;;;314.17;66.73;;;-1.10;99.90;;;;;;4109735;28;20339;-61
2021/11/13 00:12:45;;;;;;;349.93;64.30;;;-1.10;99.90;;;;;;4108606;28;20331;-63
2021/11/13 00:14:46;;;;;;;317.60;61.23;;;-1.20;99.90;;;;;;4107385;28;20835;-62
2021/11/13 00:16:48;;;;;;;227.57;59.53;;;-1.20;99.90;;;;;;4107897;28;20722;-63
2021/11/13 00:18:49;;;;;;;264.80;64.57;;;-1.30;99.90;;;;;;4107785;28;20269;-62
2021/11/13 00:20:50;;;;;;;239.60;65.43;;;-1.30;99.90;;;;;;4108406;28;20273;-68
2021/11/13 00:22:53;;;;;;;230.57;62.43;;;-1.20;99.90;;;;;;4107941;28;20280;-63
2021/11/13 00:24:55;;;;;;;210.23;59.17;;;-1.20;99.90;;;;;;4108722;28;20328;-62
2021/11/13 00:26:56;;;;;;;288.30;61.63;;;-1.10;99.90;;;;;;4106709;28;20341;-62
2021/11/13 00:28:57;;;;;;;265.03;66.93;;;-1.10;99.90;;;;;;4109610;28;20272;-61
2021/11/13 00:30:58;;;;;;;263.50;60.67;;;-1.20;99.90;;;;;;4108300;28;20738;-62
2021/11/13 00:33:00;;;;;;;224.30;59.53;;;-1.20;99.90;;;;;;4109054;28;20269;-62
2021/11/13 00:35:01;;;;;;;233.07;57.07;;;-1.20;99.90;;;;;;4116933;28;20283;-66
2021/11/13 00:37:03;;;;;;;305.40;58.60;;;-1.30;99.90;;;;;;4125800;28;20326;-63
2021/11/13 00:39:04;;;;;;;270.07;56.40;;;-1.30;99.90;;;;;;4124265;28;20338;-61
2021/11/13 00:41:05;;;;;;;286.33;55.40;;;-1.40;99.90;;;;;;4118978;28;20769;-63
2021/11/13 00:43:07;;;;;;;226.47;56.43;;;-1.50;99.90;;;;;;4107947;28;20284;-62
2021/11/13 00:45:08;;;;;;;281.00;63.07;;;-1.50;99.90;;;;;;4109047;28;20323;-68
2021/11/13 00:47:10;;;;;;;361.93;61.07;;;-1.50;99.90;;;;;;4112432;28;20276;-62
2021/11/13 00:49:11;;;;;;;331.13;66.33;;;-1.50;99.90;;;;;;4124534;28;20264;-64
2021/11/13 00:51:12;;;;;;;216.00;57.93;;;-1.50;99.90;;;;;;4124553;28;20332;-64
2021/11/13 00:53:16;;;;;;;217.97;53.03;;;-1.60;99.90;;;;;;4124317;28;20331;-62
2021/11/13 00:55:19;;;;;;;195.53;52.60;;;-1.50;99.90;;;;;;4123839;28;20784;-62
2021/11/13 00:57:20;;;;;;;213.90;51.00;;;-1.50;99.90;;;;;;4119313;28;20281;-64
2021/11/13 00:59:21;;;;;;;284.40;60.60;;;-1.50;99.90;;;;;;4108524;28;20269;-64
2021/11/13 01:01:23;;;;;;;291.70;64.40;;;-1.40;99.90;;;;;;4111436;28;20311;-65
2021/11/13 01:03:24;;;;;;;243.33;57.03;;;-1.50;99.90;;;;;;4125509;28;20303;-63
2021/11/13 01:05:27;;;;;;;295.73;59.97;;;-1.50;99.90;;;;;;4121554;28;20334;-62
2021/11/13 01:07:28;;;;;;;198.37;52.57;;;-1.50;99.90;;;;;;4125211;28;20719;-63
2021/11/13 01:09:29;;;;;;;243.30;55.23;;;-1.50;99.90;;;;;;4123590;28;20712;-67
2021/11/13 01:11:31;;;;;;;238.10;54.80;;;-1.50;99.90;;;;;;4125455;28;20260;-63
2021/11/13 01:13:32;;;;;;;194.47;50.63;;;-1.50;99.90;;;;;;4124004;28;20370;-63
2021/11/13 01:15:34;;;;;;;219.40;54.63;;;-1.50;99.90;;;;;;4124925;28;20882;-67
2021/11/13 01:17:35;;;;;;;227.67;49.73;;;-1.60;99.90;;;;;;4123360;28;20707;-64
2021/11/13 01:19:38;;;;;;;233.77;53.77;;;-1.60;99.90;;;;;;4123924;28;20307;-63
2021/11/13 01:21:40;;;;;;;268.83;58.70;;;-1.60;99.90;;;;;;4123168;28;20280;-62
2021/11/13 01:23:41;;;;;;;202.03;49.80;;;-1.70;99.90;;;;;;4123805;28;20280;-63
2021/11/13 01:25:42;;;;;;;229.73;52.10;;;-1.70;99.90;;;;;;4124535;28;20284;-63
2021/11/13 01:27:44;;;;;;;207.87;51.40;;;-1.70;99.90;;;;;;4124022;28;20269;-64
2021/11/13 01:29:45;;;;;;;220.83;50.30;;;-1.70;99.90;;;;;;4109095;28;20678;-62
2021/11/13 01:31:47;;;;;;;218.87;50.93;;;-1.70;99.90;;;;;;4106865;28;20323;-63
2021/11/13 01:33:49;;;;;;;260.83;53.03;;;-1.70;99.90;;;;;;4108372;28;20268;-63
2021/11/13 01:35:50;;;;;;;235.23;52.57;;;-1.70;99.90;;;;;;4107403;28;20328;-63
2021/11/13 01:37:51;;;;;;;257.60;55.23;;;-1.70;99.90;;;;;;4108435;28;20278;-63
2021/11/13 01:39:53;;;;;;;261.10;51.63;;;-1.70;99.90;;;;;;4110558;28;20272;-63
2021/11/13 01:41:57;;;;;;;181.57;50.87;;;-1.70;99.90;;;;;;4110356;28;20293;-65
2021/11/13 01:43:58;;;;;;;158.53;51.37;;;-1.70;99.90;;;;;;4110005;28;20288;-63
2021/11/13 01:46:01;;;;;;;197.40;54.60;;;-1.70;99.90;;;;;;4112230;28;20311;-64
2021/11/13 01:48:03;;;;;;;155.87;49.30;;;-1.60;99.90;;;;;;4109996;28;20343;-62
2021/11/13 01:50:25;;;;;;;219.70;58.47;;;-1.60;99.90;;;;;;4111355;28;20808;-68
2021/11/13 01:52:26;;;;;;;337.17;62.53;;;-1.50;99.90;;;;;;4110755;28;20339;-63
2021/11/13 01:54:29;;;;;;;213.37;51.90;;;-1.60;99.90;;;;;;4111368;28;20367;-62
2021/11/13 01:56:31;;;;;;;208.43;52.43;;;-1.60;99.90;;;;;;4110639;28;20793;-65
2021/11/13 01:58:32;;;;;;;220.53;54.43;;;-1.60;99.90;;;;;;4110940;28;20327;-63
2021/11/13 02:00:43;;;;;;;193.30;54.50;;;-1.70;99.90;;;;;;4110828;28;20327;-66
2021/11/13 02:02:45;;;;;;;250.23;60.23;;;-1.70;99.90;;;;;;4126320;28;20354;-65
2021/11/13 02:04:46;;;;;;;218.37;54.40;;;-1.70;99.90;;;;;;4127143;28;20265;-63
2021/11/13 02:06:47;;;;;;;225.17;54.03;;;-1.70;99.90;;;;;;4126803;28;20342;-69
2021/11/13 02:08:49;;;;;;;135.67;49.83;;;-1.70;99.90;;;;;;4127130;28;20299;-65
2021/11/13 02:10:50;;;;;;;214.93;53.73;;;-1.60;99.90;;;;;;4125666;28;20734;-62
2021/11/13 02:12:53;;;;;;;299.07;57.70;;;-1.50;99.90;;;;;;4127707;28;20268;-64
2021/11/13 02:14:54;;;;;;;167.37;48.70;;;-1.50;99.90;;;;;;4126356;28;20299;-59
2021/11/13 02:16:56;;;;;;;153.27;48.37;;;-1.50;99.90;;;;;;4128049;28;21168;-61
2021/11/13 02:18:57;;;;;;;159.70;50.10;;;-1.50;99.90;;;;;;4125960;28;20272;-62
2021/11/13 02:20:58;;;;;;;128.83;46.83;;;-1.40;99.90;;;;;;4119906;28;20272;-65
2021/11/13 02:23:05;;;;;;;137.40;48.37;;;-1.40;99.90;;;;;;4110508;28;20268;-63
2021/11/13 02:25:07;;;;;;;200.97;53.07;;;-1.30;99.90;;;;;;4111348;28;20677;-67
2021/11/13 02:27:08;;;;;;;197.73;52.90;;;-1.30;99.90;;;;;;4110527;28;20769;-61
2021/11/13 02:29:09;;;;;;;312.10;61.13;;;-1.30;99.90;;;;;;4127615;28;20334;-62
2021/11/13 02:31:12;;;;;;;151.93;46.63;;;-1.40;99.90;;;;;;4125979;28;20738;-68
2021/11/13 02:33:13;;;;;;;257.00;55.10;;;-1.40;99.90;;;;;;4127027;28;20319;-67
2021/11/13 02:35:16;;;;;;;388.17;73.97;;;-1.40;99.90;;;;;;4126368;28;20346;-62
2021/11/13 02:37:17;;;;;;;279.07;60.33;;;-1.50;99.90;;;;;;4125901;28;20331;-63
2021/11/13 02:39:18;;;;;;;245.17;58.50;;;-1.60;99.90;;;;;;4126113;28;20283;-62
2021/11/13 02:41:22;;;;;;;203.30;53.77;;;-1.60;99.90;;;;;;4126034;28;20284;-62
2021/11/13 02:43:29;;;;;;;258.30;57.77;;;-1.60;99.90;;;;;;4126600;28;20701;-61
2021/11/13 02:45:31;;;;;;;205.83;48.07;;;-1.60;99.90;;;;;;4125065;28;20268;-62
2021/11/13 02:47:42;;;;;;;327.83;60.13;;;-1.70;99.90;;;;;;4127398;28;20634;-62
2021/11/13 02:49:46;;;;;;;280.58;55.38;;;-1.60;99.90;;;;;;4125225;28;20287;-62
2021/11/13 02:51:48;;;;;;;201.03;52.30;;;-1.70;99.90;;;;;;4126907;28;20038;-64
2021/11/13 02:53:51;;;;;;;184.03;50.93;;;-1.70;99.90;;;;;;4125675;28;20315;-62
2021/11/13 02:55:54;;;;;;;281.83;53.93;;;-1.70;99.90;;;;;;4111458;28;20355;-64
2021/11/13 02:57:56;;;;;;;318.10;61.63;;;-1.70;99.90;;;;;;4109739;28;20343;-65
2021/11/13 02:59:57;;;;;;;256.93;49.40;;;-1.80;99.90;;;;;;4110756;28;20831;-62
2021/11/13 03:01:58;;;;;;;282.73;52.43;;;-1.90;99.90;;;;;;4108873;28;20293;-62
2021/11/13 03:03:59;;;;;;;227.10;45.60;;;-1.90;99.90;;;;;;4110678;28;20749;-61
2021/11/13 03:06:01;;;;;;;241.73;45.07;;;-2.00;99.90;;;;;;4109786;28;20316;-63
2021/11/13 03:08:05;;;;;;;170.60;43.97;;;-2.00;99.90;;;;;;4110765;28;20328;-61
2021/11/13 03:10:06;;;;;;;286.80;51.50;;;-2.00;99.90;;;;;;4109388;28;20308;-62
2021/11/13 03:12:08;;;;;;;183.20;40.60;;;-2.00;99.90;;;;;;4110001;28;20327;-62
2021/11/13 03:14:09;;;;;;;173.13;40.90;;;-2.00;99.90;;;;;;4109793;28;20796;-66
2021/11/13 03:16:12;;;;;;;179.60;38.90;;;-2.00;99.90;;;;;;4109950;28;20281;-63
2021/11/13 03:18:13;;;;;;;136.83;38.57;;;-2.10;99.90;;;;;;4110123;28;20260;-63
2021/11/13 03:20:23;;;;;;;207.17;41.13;;;-2.00;99.90;;;;;;4109370;28;20339;-63
2021/11/13 03:22:24;;;;;;;174.70;38.20;;;-2.00;99.90;;;;;;4109933;28;20312;-63
2021/11/13 03:24:27;;;;;;;176.93;40.13;;;-2.10;99.90;;;;;;4109095;28;21046;-65
2021/11/13 03:26:29;;;;;;;143.97;42.90;;;-2.10;99.90;;;;;;4110257;28;20742;-61
2021/11/13 03:28:36;;;;;;;152.87;39.27;;;-2.10;99.90;;;;;;4107524;28;20669;-64
2021/11/13 03:30:38;;;;;;;198.83;43.30;;;-2.10;99.90;;;;;;4110369;28;20261;-63
2021/11/13 03:32:41;;;;;;;188.93;43.43;;;-2.10;99.90;;;;;;4107287;28;20323;-63
2021/11/13 03:34:42;;;;;;;179.50;43.90;;;-2.10;99.90;;;;;;4110783;28;20296;-67
2021/11/13 03:36:43;;;;;;;171.53;43.03;;;-2.10;99.90;;;;;;4108575;28;20285;-66
2021/11/13 03:38:44;;;;;;;223.00;43.43;;;-2.10;99.90;;;;;;4109879;28;20277;-63
2021/11/13 03:40:47;;;;;;;163.70;40.30;;;-2.10;99.90;;;;;;4108772;28;20280;-62
2021/11/13 03:42:50;;;;;;;188.30;42.40;;;-2.10;99.90;;;;;;4110020;28;20355;-63
2021/11/13 03:44:51;;;;;;;184.43;43.90;;;-2.20;99.90;;;;;;4108774;28;20350;-63
2021/11/13 03:46:52;;;;;;;176.63;41.80;;;-2.20;99.90;;;;;;4110674;28;20277;-66
2021/11/13 03:48:54;;;;;;;219.40;46.53;;;-2.20;99.90;;;;;;4119403;28;20264;-65
2021/11/13 03:50:55;;;;;;;278.33;57.77;;;-2.20;99.90;;;;;;4125257;28;20268;-63
2021/11/13 03:52:57;;;;;;;170.87;46.43;;;-2.20;99.90;;;;;;4125629;28;20260;-66
2021/11/13 03:54:58;;;;;;;231.10;50.63;;;-2.20;99.90;;;;;;4124333;28;20354;-67
2021/11/13 03:56:59;;;;;;;178.10;46.53;;;-2.20;99.90;;;;;;4124846;28;20326;-63
2021/11/13 03:59:05;;;;;;;185.87;42.43;;;-2.20;99.90;;;;;;4124714;28;20268;-63
2021/11/13 04:01:07;;;;;;;146.97;37.63;;;-2.20;99.90;;;;;;4125724;28;20280;-63
2021/11/13 04:03:08;;;;;;;144.00;38.73;;;-2.20;99.90;;;;;;4123881;28;20284;-64
2021/11/13 04:05:09;;;;;;;235.53;47.97;;;-2.20;99.90;;;;;;4125142;28;20390;-62
2021/11/13 04:07:11;;;;;;;182.70;40.57;;;-2.20;99.90;;;;;;4124130;28;20293;-67
2021/11/13 04:09:12;;;;;;;181.70;39.57;;;-2.20;99.90;;;;;;4125915;28;20276;-62
2021/11/13 04:11:13;;;;;;;268.50;47.43;;;-2.20;99.90;;;;;;4123096;28;20772;-63
2021/11/13 04:13:15;;;;;;;246.57;45.10;;;-2.30;99.90;;;;;;4126025;28;20692;-66
2021/11/13 04:15:17;;;;;;;330.43;48.10;;;-2.20;99.90;;;;;;4124567;28;20299;-62
2021/11/13 04:17:18;;;;;;;300.17;46.97;;;-2.20;99.90;;;;;;4113367;28;20736;-63
2021/11/13 04:19:20;;;;;;;171.80;41.13;;;-2.20;99.90;;;;;;4108376;28;20296;-63
2021/11/13 04:21:21;;;;;;;204.83;42.53;;;-2.30;99.90;;;;;;4109030;28;20268;-63
2021/11/13 04:23:22;;;;;;;234.53;45.00;;;-2.30;99.90;;;;;;4108876;28;20729;-62
2021/11/13 04:25:23;;;;;;;167.53;39.03;;;-2.20;99.90;;;;;;4108546;28;20276;-64
2021/11/13 04:27:24;;;;;;;220.27;42.70;;;-2.20;99.90;;;;;;4108453;28;20257;-63
2021/11/13 04:29:25;;;;;;;185.23;41.63;;;-2.20;99.90;;;;;;4109118;28;20312;-62
2021/11/13 04:31:26;;;;;;;252.77;51.37;;;-2.20;99.90;;;;;;4109192;28;20883;-63
2021/11/13 04:33:29;;;;;;;233.80;47.47;;;-2.20;99.90;;;;;;4108085;28;20272;-65
2021/11/13 04:37:31;;;;;;;114.50;38.00;;;-2.20;99.90;;;;;;4108118;28;20681;-63
2021/11/13 04:39:32;;;;;;;223.67;40.47;;;-2.10;99.90;;;;;;4109251;28;20777;-64
2021/11/13 04:41:35;;;;;;;172.23;40.53;;;-2.10;99.90;;;;;;4107465;28;20281;-64
2021/11/13 04:43:36;;;;;;;112.67;35.30;;;-2.10;99.90;;;;;;4109000;28;20327;-62
2021/11/13 04:45:37;;;;;;;93.30;36.20;;;-2.10;99.90;;;;;;4119370;28;20284;-64
2021/11/13 04:47:39;;;;;;;134.70;39.33;;;-2.00;99.90;;;;;;4121239;28;20339;-64
2021/11/13 04:49:40;;;;;;;236.67;45.80;;;-1.90;99.90;;;;;;4107733;28;20343;-62
2021/11/13 04:51:42;;;;;;;172.70;38.57;;;-2.00;99.90;;;;;;4109157;28;20280;-65
2021/11/13 04:53:43;;;;;;;154.83;39.47;;;-2.00;99.90;;;;;;4108078;28;20261;-63
2021/11/13 04:55:44;;;;;;;133.23;39.63;;;-2.10;99.90;;;;;;4107912;28;20300;-65
2021/11/13 04:57:47;;;;;;;131.07;39.87;;;-2.10;99.90;;;;;;4113771;28;20268;-64
2021/11/13 04:59:48;;;;;;;135.97;42.77;;;-2.10;99.90;;;;;;4124160;28;20338;-61
2021/11/13 05:01:49;;;;;;;126.40;44.10;;;-2.00;99.90;;;;;;4123217;28;20272;-64
2021/11/13 05:03:51;;;;;;;178.00;44.93;;;-1.90;99.90;;;;;;4124059;28;20346;-62
2021/11/13 05:05:53;;;;;;;169.60;42.87;;;-1.90;99.90;;;;;;4124217;28;20272;-61
2021/11/13 05:07:54;;;;;;;172.43;44.90;;;-1.90;99.90;;;;;;4123977;28;20272;-67
2021/11/13 05:09:55;;;;;;;171.33;46.77;;;-2.00;99.90;;;;;;4118698;28;20331;-63
2021/11/13 05:11:56;;;;;;;177.70;44.27;;;-2.00;99.90;;;;;;4119167;28;20284;-63
2021/11/13 05:13:58;;;;;;;122.50;42.17;;;-2.10;99.90;;;;;;4124610;28;20318;-63
2021/11/13 05:15:59;;;;;;;128.77;38.83;;;-2.20;99.90;;;;;;4109060;28;20301;-67
2021/11/13 05:18:00;;;;;;;103.30;39.90;;;-2.20;99.90;;;;;;4109294;28;20350;-62
2021/11/13 05:20:02;;;;;;;95.37;37.90;;;-2.20;99.90;;;;;;4107410;28;20374;-63
2021/11/13 05:22:05;;;;;;;87.97;36.53;;;-2.30;99.90;;;;;;4108750;28;20308;-64
2021/11/13 05:24:06;;;;;;;106.87;38.73;;;-2.30;99.90;;;;;;4107820;28;20267;-64
2021/11/13 05:26:08;;;;;;;104.67;38.43;;;-2.30;99.90;;;;;;4107948;28;20272;-62
2021/11/13 05:28:09;;;;;;;105.23;38.77;;;-2.30;99.90;;;;;;4107620;28;20661;-63
2021/11/13 05:30:13;;;;;;;95.33;40.23;;;-2.30;99.90;;;;;;4107115;28;20312;-62
2021/11/13 05:32:16;;;;;;;104.43;38.40;;;-2.40;99.90;;;;;;4107472;28;20320;-62
2021/11/13 05:34:17;;;;;;;110.27;38.93;;;-2.40;99.90;;;;;;4107111;28;20281;-67
2021/11/13 05:36:18;;;;;;;117.40;39.43;;;-2.40;99.90;;;;;;4108380;28;20424;-62
2021/11/13 05:38:19;;;;;;;167.10;44.90;;;-2.40;99.90;;;;;;4107248;28;20741;-65
2021/11/13 05:40:21;;;;;;;115.67;38.60;;;-2.40;99.90;;;;;;4108326;28;20273;-64
2021/11/13 05:42:23;;;;;;;131.33;40.43;;;-2.40;99.90;;;;;;4106774;28;20273;-63
2021/11/13 05:44:24;;;;;;;164.93;40.37;;;-2.40;99.90;;;;;;4123156;28;20350;-62
2021/11/13 05:46:26;;;;;;;180.23;39.87;;;-2.50;99.90;;;;;;4123354;28;20265;-63
2021/11/13 05:48:27;;;;;;;179.10;42.13;;;-2.50;99.90;;;;;;4124920;28;20272;-64
2021/11/13 05:50:30;;;;;;;201.83;41.37;;;-2.50;99.90;;;;;;4122912;28;20288;-65
2021/11/13 05:52:31;;;;;;;203.07;40.23;;;-2.50;99.90;;;;;;4124427;28;20284;-64
2021/11/13 05:54:32;;;;;;;261.37;47.93;;;-2.60;99.90;;;;;;4119744;28;20283;-64
2021/11/13 05:56:33;;;;;;;225.13;44.93;;;-2.60;99.90;;;;;;4122592;28;20350;-67
2021/11/13 05:58:34;;;;;;;202.40;43.70;;;-2.60;99.90;;;;;;4122628;28;20264;-62
2021/11/13 06:00:36;;;;;;;220.13;43.90;;;-2.70;99.90;;;;;;4123562;28;20314;-63
2021/11/13 06:02:37;;;;;;;262.57;43.70;;;-2.70;99.90;;;;;;4123845;28;20327;-66
2021/11/13 06:04:38;;;;;;;363.70;42.57;;;-2.60;99.90;;;;;;4123405;28;20272;-63
2021/11/13 06:06:39;;;;;;;167.83;39.63;;;-2.70;99.90;;;;;;4123844;28;20272;-63
2021/11/13 06:08:41;;;;;;;352.23;47.67;;;-2.70;99.90;;;;;;4122921;28;20700;-62
2021/11/13 06:10:42;;;;;;;180.57;37.90;;;-2.70;99.90;;;;;;4124049;28;20264;-68
2021/11/13 06:12:43;;;;;;;163.50;35.47;;;-2.80;99.90;;;;;;4123073;28;20283;-63
2021/11/13 06:14:45;;;;;;;236.70;41.23;;;-2.70;99.90;;;;;;4124378;28;20276;-62
2021/11/13 06:16:46;;;;;;;197.50;38.30;;;-2.70;99.90;;;;;;4121354;28;20342;-66
2021/11/13 06:18:47;;;;;;;246.87;40.83;;;-2.80;99.90;;;;;;4124360;28;20273;-63
2021/11/13 06:20:48;;;;;;;280.50;42.03;;;-2.80;99.90;;;;;;4122782;28;20268;-64
2021/11/13 06:22:49;;;;;;;232.43;40.17;;;-2.90;99.90;;;;;;4124113;28;20299;-61
2021/11/13 06:24:50;;;;;;;148.33;36.13;;;-2.90;99.90;;;;;;4120292;28;20280;-66
2021/11/13 06:26:52;;;;;;;249.23;43.27;;;-2.90;99.90;;;;;;4126750;28;20307;-72
2021/11/13 06:28:53;;;;;;;193.67;39.57;;;-2.90;99.90;;;;;;4125773;28;20284;-66
2021/11/13 06:30:54;;;;;;;177.40;41.13;;;-2.80;99.90;;;;;;4126159;28;20307;-66
2021/11/13 06:32:55;;;;;;;142.33;36.00;;;-2.80;99.90;;;;;;4126132;28;21117;-63
2021/11/13 06:34:59;;;;;;;118.27;38.90;;;-2.80;99.90;;;;;;4125937;28;20292;-63
2021/11/13 06:37:00;;;;;;;152.87;38.37;;;-2.70;99.90;;;;;;4127016;28;20354;-63
2021/11/13 06:39:02;;;;;;;210.20;43.10;;;-2.60;99.90;;;;;;4125865;28;20739;-61
2021/11/13 06:41:03;;;;;;;120.07;37.73;;;-2.60;99.90;;;;;;4114653;28;21307;-61
2021/11/13 06:43:05;;;;;;;170.43;40.80;;;-2.60;99.90;;;;;;4109417;28;21055;-63
2021/11/13 06:45:09;;;;;;;151.37;37.30;;;-2.70;99.90;;;;;;4110448;28;20836;-69
2021/11/13 06:47:11;;;;;;;160.40;38.33;;;-2.80;99.90;;;;;;4108464;28;20340;-65
2021/11/13 06:49:12;;;;;;;228.37;38.20;;;-2.70;99.90;;;;;;4110119;28;20316;-63
2021/11/13 06:51:13;;;;;;;195.30;35.10;;;-2.70;99.90;;;;;;4109219;28;20293;-62
2021/11/13 06:53:15;;;;;;;132.50;34.07;;;-2.70;99.90;;;;;;4110087;28;20269;-63
2021/11/13 06:55:16;;;;;;;200.47;38.63;;;-2.70;99.90;;;;;;4113494;28;20343;-62
2021/11/13 06:57:17;;;;;;;114.23;33.83;;;-2.80;99.90;;;;;;4123105;28;20283;-63
2021/11/13 06:59:20;;;;;;;116.73;31.67;;;-2.80;99.90;;;;;;4141944;28;20252;-63
2021/11/13 07:01:21;;;;;;;240.43;35.47;;;-2.70;99.90;;;;;;4137034;28;20276;-63
2021/11/13 07:03:22;;;;;;;213.57;34.53;;;-2.70;99.90;;;;;;4120922;28;20283;-63
2021/11/13 07:05:23;;;;;;;198.77;32.83;;;-2.70;99.90;;;;;;4125497;28;20268;-61
2021/11/13 07:07:24;;;;;;;105.50;30.67;;;-2.70;99.90;;;;;;4128310;28;20259;-64
2021/11/13 07:09:26;;;;;;;165.60;31.00;;;-2.70;99.90;;;;;;4140971;28;20337;-66
2021/11/13 07:11:27;;;;;;;158.60;32.73;;;-2.60;99.90;;;;;;4142483;28;20330;-65
2021/11/13 07:13:29;;;;;;;110.43;26.63;;;-2.70;99.90;;;;;;4141369;28;20341;-63
2021/11/13 07:15:33;;;;;;;96.53;25.17;;;-2.60;99.90;;;;;;4142492;28;21071;-61
2021/11/13 07:17:34;;;;;;;115.80;26.10;;;-2.70;99.90;;;;;;4141764;28;20275;-61
2021/11/13 07:19:35;;;;;;;114.00;23.83;;;-2.80;99.90;;;;;;4140528;28;20260;-61
2021/11/13 07:21:39;;;;;;;72.20;22.67;;;-2.80;99.90;;;;;;4124647;28;20264;-63
2021/11/13 07:23:40;;;;;;;66.33;25.40;;;-2.80;99.90;;;;;;4124485;28;20288;-63
2021/11/13 07:25:41;;;;;;;67.27;23.87;;;-2.70;99.90;;;;;;4125070;28;20272;-65
2021/11/13 07:27:46;;;;;;;59.20;24.50;;;-2.60;99.90;;;;;;4126152;28;20684;-66
2021/11/13 07:29:57;;;;;;;60.63;23.00;;;-2.50;99.90;;;;;;4122936;28;20279;-63
2021/11/13 07:31:58;;;;;;;128.13;26.10;;;-2.50;99.90;;;;;;4109685;28;20339;-63
2021/11/13 07:34:00;;;;;;;58.37;21.27;;;-2.40;99.90;;;;;;4108879;28;20405;-61
2021/11/13 07:36:01;;;;;;;42.50;19.40;;;-2.20;99.90;;;;;;4113910;28;20367;-64
2021/11/13 07:38:03;;;;;;;46.60;21.60;;;-2.10;99.90;;;;;;4141156;28;20342;-62
2021/11/13 07:40:05;;;;;;;43.77;20.87;;;-2.00;99.90;;;;;;4140933;28;20571;-71
2021/11/13 07:42:06;;;;;;;51.93;20.43;;;-2.00;99.90;;;;;;4124671;28;20713;-62
2021/11/13 07:44:07;;;;;;;45.40;20.03;;;-2.00;99.90;;;;;;4122647;28;20291;-62
2021/11/13 07:46:08;;;;;;;36.70;17.60;;;-1.90;99.90;;;;;;4125150;28;20693;-64
2021/11/13 07:48:10;;;;;;;29.77;16.37;;;-1.80;99.90;;;;;;4124622;28;20268;-66
2021/11/13 07:50:13;;;;;;;39.37;19.70;;;-1.80;99.90;;;;;;4125870;28;20806;-63
2021/11/13 07:52:14;;;;;;;39.27;19.53;;;-1.70;99.90;;;;;;4124422;28;20318;-62
2021/11/13 07:54:16;;;;;;;40.47;20.27;;;-1.60;99.90;;;;;;4125555;28;20314;-61
2021/11/13 07:56:18;;;;;;;42.13;20.87;;;-1.50;99.90;;;;;;4124393;28;20300;-62
2021/11/13 07:58:19;;;;;;;42.87;21.30;;;-1.50;99.90;;;;;;4123354;28;20335;-62
2021/11/13 08:00:21;;;;;;;41.83;20.03;;;-1.50;99.90;;;;;;4123882;28;20288;-63
2021/11/13 08:02:22;;;;;;;38.23;18.93;;;-1.30;99.90;;;;;;4125006;28;20318;-62
2021/11/13 08:04:23;;;;;;;35.70;19.30;;;-1.20;99.90;;;;;;4123702;28;20391;-63
2021/11/13 08:06:24;;;;;;;43.93;20.67;;;-1.00;99.90;;;;;;4125427;28;20268;-68
2021/11/13 08:08:25;;;;;;;47.40;21.30;;;-0.80;99.90;;;;;;4122408;28;20251;-63
2021/11/13 08:10:26;;;;;;;37.43;20.77;;;-0.60;99.90;;;;;;4124662;28;20621;-63
2021/11/13 08:12:27;;;;;;;42.43;21.37;;;-0.30;99.90;;;;;;4124052;28;20641;-62
2021/11/13 08:14:29;;;;;;;39.70;20.00;;;-0.20;99.90;;;;;;4111062;28;20280;-61
2021/11/13 08:16:30;;;;;;;37.17;20.30;;;0.00;99.90;;;;;;4109506;28;20308;-64
2021/11/13 08:18:31;;;;;;;52.80;25.07;;;0.10;99.90;;;;;;4109101;28;20281;-63
2021/11/13 08:20:32;;;;;;;56.90;27.50;;;0.20;99.90;;;;;;4108909;28;20316;-61
2021/11/13 08:22:37;;;;;;;50.57;25.03;;;0.30;99.90;;;;;;4118499;28;20326;-64
2021/11/13 08:24:39;;;;;;;43.00;23.03;;;0.50;99.90;;;;;;4125118;28;21134;-61
2021/11/13 08:26:40;;;;;;;31.67;17.83;;;0.80;99.90;;;;;;4122121;28;20346;-62
2021/11/13 08:28:41;;;;;;;30.87;16.80;;;0.90;99.90;;;;;;4115053;28;20397;-62
2021/11/13 08:30:43;;;;;;;32.50;18.63;;;1.00;99.90;;;;;;4110426;28;20280;-62
2021/11/13 08:32:46;;;;;;;49.27;23.67;;;1.00;99.90;;;;;;4114681;28;21075;-62
2021/11/13 08:34:47;;;;;;;37.53;20.10;;;1.20;99.90;;;;;;4116512;28;20316;-61
2021/11/13 08:36:48;;;;;;;37.17;19.53;;;1.20;99.90;;;;;;4112379;28;20358;-62
2021/11/13 08:38:49;;;;;;;36.87;19.80;;;1.00;99.90;;;;;;4113667;28;20283;-64
2021/11/13 08:40:53;;;;;;;36.67;18.63;;;1.10;99.90;;;;;;4110599;28;20284;-62
2021/11/13 08:42:54;;;;;;;32.80;19.00;;;1.20;99.90;;;;;;4116239;28;20377;-62
2021/11/13 08:44:55;;;;;;;34.87;18.43;;;1.50;99.90;;;;;;4127169;28;21191;-62
2021/11/13 08:46:57;;;;;;;37.60;20.73;;;1.50;99.90;;;;;;4113558;28;20347;-61
2021/11/13 08:48:58;;;;;;;36.40;19.73;;;1.70;99.90;;;;;;4113355;28;20280;-62
2021/11/13 08:51:00;;;;;;;34.73;18.90;;;1.90;99.90;;;;;;4119879;28;20342;-61
2021/11/13 08:53:03;;;;;;;38.67;18.53;;;2.00;99.90;;;;;;4117801;28;20264;-62
2021/11/13 08:55:05;;;;;;;36.80;19.70;;;2.20;99.90;;;;;;4114110;28;20265;-61
2021/11/13 08:57:07;;;;;;;32.33;17.63;;;2.30;99.90;;;;;;4109548;28;20684;-62
2021/11/13 08:59:08;;;;;;;24.93;16.00;;;2.10;99.90;;;;;;4112614;28;21177;-61
2021/11/13 09:01:09;;;;;;;27.43;16.10;;;2.00;99.90;;;;;;4109925;28;20267;-62
2021/11/13 09:03:20;;;;;;;27.47;16.20;;;2.00;99.90;;;;;;4112514;28;20316;-64
2021/11/13 09:05:21;;;;;;;26.70;16.02;;;2.00;99.90;;;;;;4109158;28;20379;-60
2021/11/13 09:07:23;;;;;;;24.93;15.03;;;2.00;99.90;;;;;;4110460;28;20105;-60
2021/11/13 09:09:24;;;;;;;27.43;16.33;;;2.00;99.90;;;;;;4109559;28;20769;-60
2021/11/13 09:11:28;;;;;;;27.53;16.93;;;2.10;99.90;;;;;;4111100;28;20291;-62
2021/11/13 09:13:29;;;;;;;31.37;17.57;;;2.10;99.90;;;;;;4109988;28;20429;-64
2021/11/13 09:15:32;;;;;;;27.63;16.13;;;2.20;99.90;;;;;;4110597;28;20277;-61
2021/11/13 09:17:33;;;;;;;29.10;16.93;;;2.30;99.90;;;;;;4109787;28;20288;-65
2021/11/13 09:19:35;;;;;;;26.43;16.03;;;2.50;99.90;;;;;;4116627;28;20307;-61
2021/11/13 09:21:36;;;;;;;29.97;16.30;;;2.70;99.90;;;;;;4136711;28;21436;-61
2021/11/13 09:23:38;;;;;;;25.50;15.63;;;3.00;99.90;;;;;;4138817;28;20301;-63
2021/11/13 09:25:45;;;;;;;25.93;16.03;;;3.10;99.90;;;;;;4127656;28;20740;-61
2021/11/13 09:27:47;;;;;;;23.60;14.00;;;3.10;99.90;;;;;;4122982;28;20272;-61
2021/11/13 09:29:49;;;;;;;19.20;13.03;;;3.10;99.90;;;;;;4124173;28;21127;-63
2021/11/13 09:31:50;;;;;;;20.63;13.47;;;3.00;99.90;;;;;;4123153;28;20280;-62
2021/11/13 09:33:52;;;;;;;25.13;15.23;;;3.10;99.90;;;;;;4124683;28;20260;-63
2021/11/13 09:35:54;;;;;;;26.63;14.30;;;3.10;99.90;;;;;;4122586;28;20332;-60
2021/11/13 09:37:56;;;;;;;26.37;15.40;;;3.20;99.90;;;;;;4137175;28;20747;-61
2021/11/13 09:39:58;;;;;;;26.57;13.77;;;3.20;99.90;;;;;;4138856;28;20353;-63
2021/11/13 09:42:01;;;;;;;35.27;16.60;;;3.00;99.90;;;;;;4140085;28;20248;-65
2021/11/13 09:44:03;;;;;;;36.67;19.53;;;3.10;99.90;;;;;;4139195;28;20369;-61
2021/11/13 09:46:07;;;;;;;28.20;15.53;;;3.20;99.90;;;;;;4140093;28;20809;-63
2021/11/13 09:48:09;;;;;;;27.87;16.23;;;3.20;99.90;;;;;;4138489;28;20317;-62
2021/11/13 09:50:11;;;;;;;27.40;15.23;;;3.20;99.90;;;;;;4139515;28;20279;-61
2021/11/13 09:52:15;;;;;;;26.20;15.67;;;3.20;99.90;;;;;;4138995;28;20268;-61
2021/11/13 09:54:17;;;;;;;31.40;18.97;;;3.20;99.90;;;;;;4138862;28;20268;-60
2021/11/13 09:56:18;;;;;;;38.30;20.03;;;3.20;99.90;;;;;;4139456;28;20295;-60
2021/11/13 09:58:19;;;;;;;43.50;26.17;;;3.20;99.90;;;;;;4138625;28;20276;-62
2021/11/13 10:00:27;;;;;;;43.90;25.03;;;3.20;99.90;;;;;;4142303;28;20325;-59
2021/11/13 10:02:28;;;;;;;44.70;27.03;;;3.30;99.90;;;;;;4142261;28;20334;-62
2021/11/13 10:04:29;;;;;;;43.80;24.60;;;3.40;99.90;;;;;;4143185;28;20402;-68
2021/11/13 10:06:30;;;;;;;39.30;24.77;;;3.50;99.90;;;;;;4141701;28;20345;-62
2021/11/13 10:08:31;;;;;;;51.23;25.67;;;3.70;99.90;;;;;;4125057;28;20681;-59
2021/11/13 10:10:37;;;;;;;45.37;24.87;;;3.80;99.90;;;;;;4131416;28;20746;-67
2021/11/13 10:12:42;;;;;;;45.07;24.73;;;3.90;99.90;;;;;;4142643;28;20833;-64
2021/11/13 10:14:43;;;;;;;51.03;28.07;;;3.90;99.90;;;;;;4138204;28;20291;-61
2021/11/13 10:16:49;;;;;;;42.00;24.93;;;3.80;99.90;;;;;;4132380;28;20288;-61